<?xml version="1.0" encoding="UTF-8" standalone="no" ?>
<gpx xmlns="http://www.topografix.com/GPX/1/1" xmlns:xsi="http://www.w3.org/2001/XMLSchema-instance" xsi:schemaLocation="http://www.topografix.com/GPX/1/1 http://www.topografix.com/GPX/1/1/gpx.xsd" version="1.1" creator="VisuGPX - https://www.visugpx.com">
  <metadata>
    <name>ChailléOrmeaux_Boucles_19km</name>
    <desc><![CDATA[gnerando idor:6553433_6553489_6956451_7846715_7847315_8111388_8144845]]></desc>
  </metadata>
  <trk>
    <name><![CDATA[ChailleOrmeaux_NeflierSureau_19.6km-6956451]]></name>
    <extensions>
      <line xmlns="http://www.topografix.com/GPX/gpx_style/0/2">
        <color>0000FF</color>
        <width>4</width>
      </line>
    </extensions>
    <trkseg>
      <trkpt lat="46.58441" lon="-1.36516">
        <ele>41</ele>
        <time>2023-10-31T21:00:07Z</time>
      </trkpt>
      <trkpt lat="46.58459" lon="-1.36521">
        <ele>40</ele>
        <time>2023-10-31T21:00:31Z</time>
      </trkpt>
      <trkpt lat="46.58515" lon="-1.36523">
        <ele>38</ele>
        <time>2023-10-31T21:01:46Z</time>
      </trkpt>
      <trkpt lat="46.58527" lon="-1.36543">
        <ele>39</ele>
        <time>2023-10-31T21:02:11Z</time>
      </trkpt>
      <trkpt lat="46.58545" lon="-1.36549">
        <ele>38</ele>
        <time>2023-10-31T21:02:35Z</time>
      </trkpt>
      <trkpt lat="46.58564" lon="-1.36548">
        <ele>37</ele>
        <time>2023-10-31T21:03:01Z</time>
      </trkpt>
      <trkpt lat="46.58582" lon="-1.36556">
        <ele>37</ele>
        <time>2023-10-31T21:03:26Z</time>
      </trkpt>
      <trkpt lat="46.58598" lon="-1.36541">
        <ele>36</ele>
        <time>2023-10-31T21:03:51Z</time>
      </trkpt>
      <trkpt lat="46.58611" lon="-1.36521">
        <ele>36</ele>
        <time>2023-10-31T21:04:16Z</time>
      </trkpt>
      <trkpt lat="46.58644" lon="-1.36455">
        <ele>34</ele>
        <time>2023-10-31T21:05:31Z</time>
      </trkpt>
      <trkpt lat="46.58663" lon="-1.36454">
        <ele>34</ele>
        <time>2023-10-31T21:05:57Z</time>
      </trkpt>
      <trkpt lat="46.58681" lon="-1.3646">
        <ele>33</ele>
        <time>2023-10-31T21:06:21Z</time>
      </trkpt>
      <trkpt lat="46.58697" lon="-1.36474">
        <ele>33</ele>
        <time>2023-10-31T21:06:46Z</time>
      </trkpt>
      <trkpt lat="46.5871" lon="-1.36493">
        <ele>33</ele>
        <time>2023-10-31T21:07:11Z</time>
      </trkpt>
      <trkpt lat="46.58721" lon="-1.36515">
        <ele>33</ele>
        <time>2023-10-31T21:07:36Z</time>
      </trkpt>
      <trkpt lat="46.58728" lon="-1.36541">
        <ele>33</ele>
        <time>2023-10-31T21:08:01Z</time>
      </trkpt>
      <trkpt lat="46.58728" lon="-1.36568">
        <ele>33</ele>
        <time>2023-10-31T21:08:26Z</time>
      </trkpt>
      <trkpt lat="46.58746" lon="-1.36566">
        <ele>32</ele>
        <time>2023-10-31T21:08:50Z</time>
      </trkpt>
      <trkpt lat="46.58778" lon="-1.36536">
        <ele>31</ele>
        <time>2023-10-31T21:09:41Z</time>
      </trkpt>
      <trkpt lat="46.58797" lon="-1.36535">
        <ele>31</ele>
        <time>2023-10-31T21:10:06Z</time>
      </trkpt>
      <trkpt lat="46.58815" lon="-1.36543">
        <ele>31</ele>
        <time>2023-10-31T21:10:31Z</time>
      </trkpt>
      <trkpt lat="46.58828" lon="-1.36561">
        <ele>31</ele>
        <time>2023-10-31T21:10:55Z</time>
      </trkpt>
      <trkpt lat="46.58839" lon="-1.36583">
        <ele>31</ele>
        <time>2023-10-31T21:11:20Z</time>
      </trkpt>
      <trkpt lat="46.58842" lon="-1.36611">
        <ele>32</ele>
        <time>2023-10-31T21:11:46Z</time>
      </trkpt>
      <trkpt lat="46.58839" lon="-1.36637">
        <ele>32</ele>
        <time>2023-10-31T21:12:10Z</time>
      </trkpt>
      <trkpt lat="46.58832" lon="-1.36664">
        <ele>32</ele>
        <time>2023-10-31T21:12:37Z</time>
      </trkpt>
      <trkpt lat="46.58831" lon="-1.36692">
        <ele>32</ele>
        <time>2023-10-31T21:13:03Z</time>
      </trkpt>
      <trkpt lat="46.58858" lon="-1.36727">
        <ele>33</ele>
        <time>2023-10-31T21:13:51Z</time>
      </trkpt>
      <trkpt lat="46.58876" lon="-1.36734">
        <ele>34</ele>
        <time>2023-10-31T21:14:16Z</time>
      </trkpt>
      <trkpt lat="46.58895" lon="-1.36737">
        <ele>35</ele>
        <time>2023-10-31T21:14:41Z</time>
      </trkpt>
      <trkpt lat="46.58913" lon="-1.36731">
        <ele>36</ele>
        <time>2023-10-31T21:15:06Z</time>
      </trkpt>
      <trkpt lat="46.5893" lon="-1.36717">
        <ele>37</ele>
        <time>2023-10-31T21:15:32Z</time>
      </trkpt>
      <trkpt lat="46.58947" lon="-1.36707">
        <ele>39</ele>
        <time>2023-10-31T21:15:56Z</time>
      </trkpt>
      <trkpt lat="46.58966" lon="-1.36704">
        <ele>41</ele>
        <time>2023-10-31T21:16:22Z</time>
      </trkpt>
      <trkpt lat="46.58977" lon="-1.36728">
        <ele>41</ele>
        <time>2023-10-31T21:16:48Z</time>
      </trkpt>
      <trkpt lat="46.58976" lon="-1.36756">
        <ele>39</ele>
        <time>2023-10-31T21:17:14Z</time>
      </trkpt>
      <trkpt lat="46.58958" lon="-1.36803">
        <ele>37</ele>
        <time>2023-10-31T21:18:03Z</time>
      </trkpt>
      <trkpt lat="46.58961" lon="-1.3683">
        <ele>36</ele>
        <time>2023-10-31T21:18:29Z</time>
      </trkpt>
      <trkpt lat="46.58986" lon="-1.36905">
        <ele>35</ele>
        <time>2023-10-31T21:19:45Z</time>
      </trkpt>
      <trkpt lat="46.58995" lon="-1.36927">
        <ele>35</ele>
        <time>2023-10-31T21:20:08Z</time>
      </trkpt>
      <trkpt lat="46.59008" lon="-1.36946">
        <ele>35</ele>
        <time>2023-10-31T21:20:33Z</time>
      </trkpt>
      <trkpt lat="46.5904" lon="-1.36973">
        <ele>36</ele>
        <time>2023-10-31T21:21:22Z</time>
      </trkpt>
      <trkpt lat="46.59057" lon="-1.36982">
        <ele>37</ele>
        <time>2023-10-31T21:21:47Z</time>
      </trkpt>
      <trkpt lat="46.59077" lon="-1.36984">
        <ele>38</ele>
        <time>2023-10-31T21:22:13Z</time>
      </trkpt>
      <trkpt lat="46.59132" lon="-1.36973">
        <ele>41</ele>
        <time>2023-10-31T21:23:27Z</time>
      </trkpt>
      <trkpt lat="46.59224" lon="-1.36983">
        <ele>45</ele>
        <time>2023-10-31T21:25:31Z</time>
      </trkpt>
      <trkpt lat="46.59279" lon="-1.36976">
        <ele>47</ele>
        <time>2023-10-31T21:26:44Z</time>
      </trkpt>
      <trkpt lat="46.59297" lon="-1.3698">
        <ele>47</ele>
        <time>2023-10-31T21:27:08Z</time>
      </trkpt>
      <trkpt lat="46.59313" lon="-1.36993">
        <ele>47</ele>
        <time>2023-10-31T21:27:33Z</time>
      </trkpt>
      <trkpt lat="46.59348" lon="-1.37061">
        <ele>46</ele>
        <time>2023-10-31T21:28:51Z</time>
      </trkpt>
      <trkpt lat="46.59392" lon="-1.37111">
        <ele>47</ele>
        <time>2023-10-31T21:30:05Z</time>
      </trkpt>
      <trkpt lat="46.59403" lon="-1.37131">
        <ele>48</ele>
        <time>2023-10-31T21:30:29Z</time>
      </trkpt>
      <trkpt lat="46.59418" lon="-1.37147">
        <ele>50</ele>
        <time>2023-10-31T21:30:54Z</time>
      </trkpt>
      <trkpt lat="46.59516" lon="-1.37219">
        <ele>55</ele>
        <time>2023-10-31T21:33:20Z</time>
      </trkpt>
      <trkpt lat="46.59546" lon="-1.37252">
        <ele>55</ele>
        <time>2023-10-31T21:34:10Z</time>
      </trkpt>
      <trkpt lat="46.59563" lon="-1.37262">
        <ele>55</ele>
        <time>2023-10-31T21:34:35Z</time>
      </trkpt>
      <trkpt lat="46.59617" lon="-1.37276">
        <ele>55</ele>
        <time>2023-10-31T21:35:48Z</time>
      </trkpt>
      <trkpt lat="46.59711" lon="-1.37289">
        <ele>56</ele>
        <time>2023-10-31T21:37:54Z</time>
      </trkpt>
      <trkpt lat="46.59729" lon="-1.37288">
        <ele>57</ele>
        <time>2023-10-31T21:38:18Z</time>
      </trkpt>
      <trkpt lat="46.59802" lon="-1.37275">
        <ele>60</ele>
        <time>2023-10-31T21:39:56Z</time>
      </trkpt>
      <trkpt lat="46.5982" lon="-1.37279">
        <ele>60</ele>
        <time>2023-10-31T21:40:20Z</time>
      </trkpt>
      <trkpt lat="46.59839" lon="-1.37276">
        <ele>61</ele>
        <time>2023-10-31T21:40:46Z</time>
      </trkpt>
      <trkpt lat="46.59877" lon="-1.37279">
        <ele>61</ele>
        <time>2023-10-31T21:41:37Z</time>
      </trkpt>
      <trkpt lat="46.59914" lon="-1.37285">
        <ele>61</ele>
        <time>2023-10-31T21:42:26Z</time>
      </trkpt>
      <trkpt lat="46.59932" lon="-1.37289">
        <ele>62</ele>
        <time>2023-10-31T21:42:51Z</time>
      </trkpt>
      <trkpt lat="46.59949" lon="-1.37304">
        <ele>63</ele>
        <time>2023-10-31T21:43:17Z</time>
      </trkpt>
      <trkpt lat="46.59967" lon="-1.37304">
        <ele>64</ele>
        <time>2023-10-31T21:43:41Z</time>
      </trkpt>
      <trkpt lat="46.60021" lon="-1.37326">
        <ele>67</ele>
        <time>2023-10-31T21:44:56Z</time>
      </trkpt>
      <trkpt lat="46.60038" lon="-1.37336">
        <ele>68</ele>
        <time>2023-10-31T21:45:21Z</time>
      </trkpt>
      <trkpt lat="46.60056" lon="-1.37343">
        <ele>68</ele>
        <time>2023-10-31T21:45:45Z</time>
      </trkpt>
      <trkpt lat="46.60075" lon="-1.37347">
        <ele>68</ele>
        <time>2023-10-31T21:46:11Z</time>
      </trkpt>
      <trkpt lat="46.60093" lon="-1.37348">
        <ele>68</ele>
        <time>2023-10-31T21:46:35Z</time>
      </trkpt>
      <trkpt lat="46.60149" lon="-1.37333">
        <ele>67</ele>
        <time>2023-10-31T21:47:51Z</time>
      </trkpt>
      <trkpt lat="46.60168" lon="-1.37335">
        <ele>67</ele>
        <time>2023-10-31T21:48:17Z</time>
      </trkpt>
      <trkpt lat="46.60205" lon="-1.37332">
        <ele>65</ele>
        <time>2023-10-31T21:49:06Z</time>
      </trkpt>
      <trkpt lat="46.60224" lon="-1.37334">
        <ele>64</ele>
        <time>2023-10-31T21:49:31Z</time>
      </trkpt>
      <trkpt lat="46.60242" lon="-1.37339">
        <ele>63</ele>
        <time>2023-10-31T21:49:56Z</time>
      </trkpt>
      <trkpt lat="46.6026" lon="-1.37348">
        <ele>62</ele>
        <time>2023-10-31T21:50:21Z</time>
      </trkpt>
      <trkpt lat="46.60315" lon="-1.37363">
        <ele>59</ele>
        <time>2023-10-31T21:51:36Z</time>
      </trkpt>
      <trkpt lat="46.60352" lon="-1.37369">
        <ele>57</ele>
        <time>2023-10-31T21:52:26Z</time>
      </trkpt>
      <trkpt lat="46.6037" lon="-1.37375">
        <ele>56</ele>
        <time>2023-10-31T21:52:50Z</time>
      </trkpt>
      <trkpt lat="46.60405" lon="-1.3739">
        <ele>54</ele>
        <time>2023-10-31T21:53:39Z</time>
      </trkpt>
      <trkpt lat="46.60437" lon="-1.37416">
        <ele>52</ele>
        <time>2023-10-31T21:54:28Z</time>
      </trkpt>
      <trkpt lat="46.60455" lon="-1.37423">
        <ele>50</ele>
        <time>2023-10-31T21:54:53Z</time>
      </trkpt>
      <trkpt lat="46.60474" lon="-1.37425">
        <ele>49</ele>
        <time>2023-10-31T21:55:18Z</time>
      </trkpt>
      <trkpt lat="46.6049" lon="-1.37441">
        <ele>47</ele>
        <time>2023-10-31T21:55:44Z</time>
      </trkpt>
      <trkpt lat="46.60499" lon="-1.37465">
        <ele>46</ele>
        <time>2023-10-31T21:56:09Z</time>
      </trkpt>
      <trkpt lat="46.60512" lon="-1.37484">
        <ele>45</ele>
        <time>2023-10-31T21:56:34Z</time>
      </trkpt>
      <trkpt lat="46.60529" lon="-1.37493">
        <ele>45</ele>
        <time>2023-10-31T21:56:58Z</time>
      </trkpt>
      <trkpt lat="46.60545" lon="-1.37505">
        <ele>45</ele>
        <time>2023-10-31T21:57:22Z</time>
      </trkpt>
      <trkpt lat="46.60547" lon="-1.37559">
        <ele>44</ele>
        <time>2023-10-31T21:58:11Z</time>
      </trkpt>
      <trkpt lat="46.60553" lon="-1.37584">
        <ele>44</ele>
        <time>2023-10-31T21:58:36Z</time>
      </trkpt>
      <trkpt lat="46.60556" lon="-1.37665">
        <ele>41</ele>
        <time>2023-10-31T21:59:50Z</time>
      </trkpt>
      <trkpt lat="46.60566" lon="-1.37689">
        <ele>41</ele>
        <time>2023-10-31T22:00:16Z</time>
      </trkpt>
      <trkpt lat="46.60591" lon="-1.3773">
        <ele>40</ele>
        <time>2023-10-31T22:01:06Z</time>
      </trkpt>
      <trkpt lat="46.60596" lon="-1.37755">
        <ele>39</ele>
        <time>2023-10-31T22:01:30Z</time>
      </trkpt>
      <trkpt lat="46.60614" lon="-1.37803">
        <ele>39</ele>
        <time>2023-10-31T22:02:20Z</time>
      </trkpt>
      <trkpt lat="46.60626" lon="-1.37824">
        <ele>39</ele>
        <time>2023-10-31T22:02:45Z</time>
      </trkpt>
      <trkpt lat="46.60634" lon="-1.37877">
        <ele>37</ele>
        <time>2023-10-31T22:03:35Z</time>
      </trkpt>
      <trkpt lat="46.6065" lon="-1.37926">
        <ele>35</ele>
        <time>2023-10-31T22:04:25Z</time>
      </trkpt>
      <trkpt lat="46.6068" lon="-1.37995">
        <ele>35</ele>
        <time>2023-10-31T22:05:39Z</time>
      </trkpt>
      <trkpt lat="46.60696" lon="-1.38043">
        <ele>36</ele>
        <time>2023-10-31T22:06:28Z</time>
      </trkpt>
      <trkpt lat="46.60702" lon="-1.38071">
        <ele>36</ele>
        <time>2023-10-31T22:06:55Z</time>
      </trkpt>
      <trkpt lat="46.60706" lon="-1.38124">
        <ele>35</ele>
        <time>2023-10-31T22:07:44Z</time>
      </trkpt>
      <trkpt lat="46.60721" lon="-1.38174">
        <ele>36</ele>
        <time>2023-10-31T22:08:34Z</time>
      </trkpt>
      <trkpt lat="46.60761" lon="-1.38234">
        <ele>37</ele>
        <time>2023-10-31T22:09:51Z</time>
      </trkpt>
      <trkpt lat="46.60775" lon="-1.38251">
        <ele>37</ele>
        <time>2023-10-31T22:10:15Z</time>
      </trkpt>
      <trkpt lat="46.60781" lon="-1.38276">
        <ele>37</ele>
        <time>2023-10-31T22:10:39Z</time>
      </trkpt>
      <trkpt lat="46.60773" lon="-1.38331">
        <ele>36</ele>
        <time>2023-10-31T22:11:31Z</time>
      </trkpt>
      <trkpt lat="46.60773" lon="-1.38359">
        <ele>36</ele>
        <time>2023-10-31T22:11:57Z</time>
      </trkpt>
      <trkpt lat="46.60792" lon="-1.38463">
        <ele>37</ele>
        <time>2023-10-31T22:13:35Z</time>
      </trkpt>
      <trkpt lat="46.608" lon="-1.38543">
        <ele>37</ele>
        <time>2023-10-31T22:14:49Z</time>
      </trkpt>
      <trkpt lat="46.60817" lon="-1.3855">
        <ele>37</ele>
        <time>2023-10-31T22:15:13Z</time>
      </trkpt>
      <trkpt lat="46.60835" lon="-1.38553">
        <ele>38</ele>
        <time>2023-10-31T22:15:37Z</time>
      </trkpt>
      <trkpt lat="46.60873" lon="-1.38553">
        <ele>41</ele>
        <time>2023-10-31T22:16:28Z</time>
      </trkpt>
      <trkpt lat="46.60909" lon="-1.38557">
        <ele>44</ele>
        <time>2023-10-31T22:17:16Z</time>
      </trkpt>
      <trkpt lat="46.60927" lon="-1.38563">
        <ele>46</ele>
        <time>2023-10-31T22:17:41Z</time>
      </trkpt>
      <trkpt lat="46.60943" lon="-1.38577">
        <ele>46</ele>
        <time>2023-10-31T22:18:06Z</time>
      </trkpt>
      <trkpt lat="46.60938" lon="-1.38604">
        <ele>45</ele>
        <time>2023-10-31T22:18:31Z</time>
      </trkpt>
      <trkpt lat="46.60904" lon="-1.38703">
        <ele>41</ele>
        <time>2023-10-31T22:20:13Z</time>
      </trkpt>
      <trkpt lat="46.60883" lon="-1.38779">
        <ele>40</ele>
        <time>2023-10-31T22:21:28Z</time>
      </trkpt>
      <trkpt lat="46.60784" lon="-1.38944">
        <ele>39</ele>
        <time>2023-10-31T22:24:49Z</time>
      </trkpt>
      <trkpt lat="46.60757" lon="-1.38982">
        <ele>38</ele>
        <time>2023-10-31T22:25:39Z</time>
      </trkpt>
      <trkpt lat="46.60686" lon="-1.39066">
        <ele>35</ele>
        <time>2023-10-31T22:27:41Z</time>
      </trkpt>
      <trkpt lat="46.60673" lon="-1.39087">
        <ele>34</ele>
        <time>2023-10-31T22:28:07Z</time>
      </trkpt>
      <trkpt lat="46.60661" lon="-1.39109">
        <ele>34</ele>
        <time>2023-10-31T22:28:33Z</time>
      </trkpt>
      <trkpt lat="46.60623" lon="-1.39204">
        <ele>35</ele>
        <time>2023-10-31T22:30:13Z</time>
      </trkpt>
      <trkpt lat="46.6061" lon="-1.39225">
        <ele>35</ele>
        <time>2023-10-31T22:30:39Z</time>
      </trkpt>
      <trkpt lat="46.60595" lon="-1.3924">
        <ele>36</ele>
        <time>2023-10-31T22:31:03Z</time>
      </trkpt>
      <trkpt lat="46.60577" lon="-1.39248">
        <ele>36</ele>
        <time>2023-10-31T22:31:29Z</time>
      </trkpt>
      <trkpt lat="46.60558" lon="-1.3925">
        <ele>36</ele>
        <time>2023-10-31T22:31:54Z</time>
      </trkpt>
      <trkpt lat="46.6054" lon="-1.39255">
        <ele>36</ele>
        <time>2023-10-31T22:32:18Z</time>
      </trkpt>
      <trkpt lat="46.60556" lon="-1.3927">
        <ele>36</ele>
        <time>2023-10-31T22:32:44Z</time>
      </trkpt>
      <trkpt lat="46.60573" lon="-1.39262">
        <ele>36</ele>
        <time>2023-10-31T22:33:08Z</time>
      </trkpt>
      <trkpt lat="46.60557" lon="-1.39275">
        <ele>36</ele>
        <time>2023-10-31T22:33:32Z</time>
      </trkpt>
      <trkpt lat="46.60575" lon="-1.39269">
        <ele>36</ele>
        <time>2023-10-31T22:33:57Z</time>
      </trkpt>
      <trkpt lat="46.60557" lon="-1.39272">
        <ele>36</ele>
        <time>2023-10-31T22:34:21Z</time>
      </trkpt>
      <trkpt lat="46.6054" lon="-1.39263">
        <ele>36</ele>
        <time>2023-10-31T22:34:45Z</time>
      </trkpt>
      <trkpt lat="46.60532" lon="-1.39238">
        <ele>36</ele>
        <time>2023-10-31T22:35:10Z</time>
      </trkpt>
      <trkpt lat="46.6052" lon="-1.39219">
        <ele>35</ele>
        <time>2023-10-31T22:35:34Z</time>
      </trkpt>
      <trkpt lat="46.60499" lon="-1.39174">
        <ele>34</ele>
        <time>2023-10-31T22:36:24Z</time>
      </trkpt>
      <trkpt lat="46.60487" lon="-1.39153">
        <ele>35</ele>
        <time>2023-10-31T22:36:49Z</time>
      </trkpt>
      <trkpt lat="46.60472" lon="-1.39136">
        <ele>35</ele>
        <time>2023-10-31T22:37:14Z</time>
      </trkpt>
      <trkpt lat="46.60454" lon="-1.39089">
        <ele>35</ele>
        <time>2023-10-31T22:38:04Z</time>
      </trkpt>
      <trkpt lat="46.60364" lon="-1.39057">
        <ele>43</ele>
        <time>2023-10-31T22:40:07Z</time>
      </trkpt>
      <trkpt lat="46.60262" lon="-1.38992">
        <ele>49</ele>
        <time>2023-10-31T22:42:36Z</time>
      </trkpt>
      <trkpt lat="46.60262" lon="-1.38966">
        <ele>49</ele>
        <time>2023-10-31T22:43:00Z</time>
      </trkpt>
      <trkpt lat="46.60286" lon="-1.38864">
        <ele>47</ele>
        <time>2023-10-31T22:44:39Z</time>
      </trkpt>
      <trkpt lat="46.60294" lon="-1.38839">
        <ele>46</ele>
        <time>2023-10-31T22:45:04Z</time>
      </trkpt>
      <trkpt lat="46.6041" lon="-1.38627">
        <ele>41</ele>
        <time>2023-10-31T22:49:12Z</time>
      </trkpt>
      <trkpt lat="46.60418" lon="-1.38602">
        <ele>40</ele>
        <time>2023-10-31T22:49:38Z</time>
      </trkpt>
      <trkpt lat="46.60417" lon="-1.38575">
        <ele>40</ele>
        <time>2023-10-31T22:50:02Z</time>
      </trkpt>
      <trkpt lat="46.6038" lon="-1.38513">
        <ele>40</ele>
        <time>2023-10-31T22:51:18Z</time>
      </trkpt>
      <trkpt lat="46.60373" lon="-1.38488">
        <ele>39</ele>
        <time>2023-10-31T22:51:42Z</time>
      </trkpt>
      <trkpt lat="46.60364" lon="-1.38409">
        <ele>37</ele>
        <time>2023-10-31T22:52:56Z</time>
      </trkpt>
      <trkpt lat="46.60348" lon="-1.38361">
        <ele>37</ele>
        <time>2023-10-31T22:53:45Z</time>
      </trkpt>
      <trkpt lat="46.60336" lon="-1.38341">
        <ele>37</ele>
        <time>2023-10-31T22:54:09Z</time>
      </trkpt>
      <trkpt lat="46.60266" lon="-1.38251">
        <ele>36</ele>
        <time>2023-10-31T22:56:14Z</time>
      </trkpt>
      <trkpt lat="46.60254" lon="-1.38231">
        <ele>36</ele>
        <time>2023-10-31T22:56:38Z</time>
      </trkpt>
      <trkpt lat="46.60251" lon="-1.38204">
        <ele>35</ele>
        <time>2023-10-31T22:57:03Z</time>
      </trkpt>
      <trkpt lat="46.60256" lon="-1.38177">
        <ele>34</ele>
        <time>2023-10-31T22:57:29Z</time>
      </trkpt>
      <trkpt lat="46.60293" lon="-1.38024">
        <ele>34</ele>
        <time>2023-10-31T22:59:58Z</time>
      </trkpt>
      <trkpt lat="46.60289" lon="-1.37998">
        <ele>34</ele>
        <time>2023-10-31T23:00:22Z</time>
      </trkpt>
      <trkpt lat="46.60271" lon="-1.37989">
        <ele>34</ele>
        <time>2023-10-31T23:00:47Z</time>
      </trkpt>
      <trkpt lat="46.60253" lon="-1.37987">
        <ele>35</ele>
        <time>2023-10-31T23:01:11Z</time>
      </trkpt>
      <trkpt lat="46.60238" lon="-1.37971">
        <ele>34</ele>
        <time>2023-10-31T23:01:36Z</time>
      </trkpt>
      <trkpt lat="46.60246" lon="-1.37919">
        <ele>34</ele>
        <time>2023-10-31T23:02:25Z</time>
      </trkpt>
      <trkpt lat="46.60244" lon="-1.37893">
        <ele>33</ele>
        <time>2023-10-31T23:02:49Z</time>
      </trkpt>
      <trkpt lat="46.60225" lon="-1.37886">
        <ele>32</ele>
        <time>2023-10-31T23:03:15Z</time>
      </trkpt>
      <trkpt lat="46.60189" lon="-1.3789">
        <ele>31</ele>
        <time>2023-10-31T23:04:03Z</time>
      </trkpt>
      <trkpt lat="46.60181" lon="-1.37865">
        <ele>30</ele>
        <time>2023-10-31T23:04:29Z</time>
      </trkpt>
      <trkpt lat="46.60172" lon="-1.37785">
        <ele>31</ele>
        <time>2023-10-31T23:05:43Z</time>
      </trkpt>
      <trkpt lat="46.60172" lon="-1.37674">
        <ele>34</ele>
        <time>2023-10-31T23:07:25Z</time>
      </trkpt>
      <trkpt lat="46.60154" lon="-1.37666">
        <ele>36</ele>
        <time>2023-10-31T23:07:50Z</time>
      </trkpt>
      <trkpt lat="46.60136" lon="-1.37675">
        <ele>36</ele>
        <time>2023-10-31T23:08:15Z</time>
      </trkpt>
      <trkpt lat="46.60108" lon="-1.37709">
        <ele>35</ele>
        <time>2023-10-31T23:09:04Z</time>
      </trkpt>
      <trkpt lat="46.60075" lon="-1.37736">
        <ele>34</ele>
        <time>2023-10-31T23:09:55Z</time>
      </trkpt>
      <trkpt lat="46.60057" lon="-1.37744">
        <ele>34</ele>
        <time>2023-10-31T23:10:20Z</time>
      </trkpt>
      <trkpt lat="46.60024" lon="-1.37766">
        <ele>34</ele>
        <time>2023-10-31T23:11:08Z</time>
      </trkpt>
      <trkpt lat="46.59989" lon="-1.37784">
        <ele>34</ele>
        <time>2023-10-31T23:11:58Z</time>
      </trkpt>
      <trkpt lat="46.59957" lon="-1.37812">
        <ele>32</ele>
        <time>2023-10-31T23:12:47Z</time>
      </trkpt>
      <trkpt lat="46.59944" lon="-1.37833">
        <ele>31</ele>
        <time>2023-10-31T23:13:13Z</time>
      </trkpt>
      <trkpt lat="46.59912" lon="-1.37862">
        <ele>32</ele>
        <time>2023-10-31T23:14:04Z</time>
      </trkpt>
      <trkpt lat="46.59895" lon="-1.37871">
        <ele>32</ele>
        <time>2023-10-31T23:14:28Z</time>
      </trkpt>
      <trkpt lat="46.59876" lon="-1.37877">
        <ele>32</ele>
        <time>2023-10-31T23:14:54Z</time>
      </trkpt>
      <trkpt lat="46.59819" lon="-1.37885">
        <ele>31</ele>
        <time>2023-10-31T23:16:10Z</time>
      </trkpt>
      <trkpt lat="46.5976" lon="-1.37951">
        <ele>32</ele>
        <time>2023-10-31T23:17:50Z</time>
      </trkpt>
      <trkpt lat="46.59741" lon="-1.37949">
        <ele>33</ele>
        <time>2023-10-31T23:18:15Z</time>
      </trkpt>
      <trkpt lat="46.59705" lon="-1.37955">
        <ele>33</ele>
        <time>2023-10-31T23:19:03Z</time>
      </trkpt>
      <trkpt lat="46.59687" lon="-1.3795">
        <ele>34</ele>
        <time>2023-10-31T23:19:28Z</time>
      </trkpt>
      <trkpt lat="46.59651" lon="-1.37933">
        <ele>33</ele>
        <time>2023-10-31T23:20:18Z</time>
      </trkpt>
      <trkpt lat="46.59633" lon="-1.37931">
        <ele>33</ele>
        <time>2023-10-31T23:20:42Z</time>
      </trkpt>
      <trkpt lat="46.59614" lon="-1.37934">
        <ele>33</ele>
        <time>2023-10-31T23:21:08Z</time>
      </trkpt>
      <trkpt lat="46.59601" lon="-1.37913">
        <ele>32</ele>
        <time>2023-10-31T23:21:34Z</time>
      </trkpt>
      <trkpt lat="46.59579" lon="-1.37868">
        <ele>32</ele>
        <time>2023-10-31T23:22:24Z</time>
      </trkpt>
      <trkpt lat="46.59563" lon="-1.37855">
        <ele>33</ele>
        <time>2023-10-31T23:22:49Z</time>
      </trkpt>
      <trkpt lat="46.59544" lon="-1.37849">
        <ele>34</ele>
        <time>2023-10-31T23:23:15Z</time>
      </trkpt>
      <trkpt lat="46.59526" lon="-1.37854">
        <ele>36</ele>
        <time>2023-10-31T23:23:39Z</time>
      </trkpt>
      <trkpt lat="46.59509" lon="-1.37845">
        <ele>36</ele>
        <time>2023-10-31T23:24:03Z</time>
      </trkpt>
      <trkpt lat="46.59476" lon="-1.37817">
        <ele>38</ele>
        <time>2023-10-31T23:24:54Z</time>
      </trkpt>
      <trkpt lat="46.59462" lon="-1.378">
        <ele>39</ele>
        <time>2023-10-31T23:25:19Z</time>
      </trkpt>
      <trkpt lat="46.59439" lon="-1.37756">
        <ele>40</ele>
        <time>2023-10-31T23:26:09Z</time>
      </trkpt>
      <trkpt lat="46.59425" lon="-1.37706">
        <ele>39</ele>
        <time>2023-10-31T23:26:59Z</time>
      </trkpt>
      <trkpt lat="46.59405" lon="-1.37659">
        <ele>37</ele>
        <time>2023-10-31T23:27:50Z</time>
      </trkpt>
      <trkpt lat="46.59388" lon="-1.3765">
        <ele>39</ele>
        <time>2023-10-31T23:28:14Z</time>
      </trkpt>
      <trkpt lat="46.59373" lon="-1.37665">
        <ele>42</ele>
        <time>2023-10-31T23:28:38Z</time>
      </trkpt>
      <trkpt lat="46.59363" lon="-1.37687">
        <ele>44</ele>
        <time>2023-10-31T23:29:02Z</time>
      </trkpt>
      <trkpt lat="46.59358" lon="-1.37713">
        <ele>45</ele>
        <time>2023-10-31T23:29:27Z</time>
      </trkpt>
      <trkpt lat="46.59348" lon="-1.37737">
        <ele>47</ele>
        <time>2023-10-31T23:29:53Z</time>
      </trkpt>
      <trkpt lat="46.5933" lon="-1.37736">
        <ele>48</ele>
        <time>2023-10-31T23:30:17Z</time>
      </trkpt>
      <trkpt lat="46.59309" lon="-1.37692">
        <ele>48</ele>
        <time>2023-10-31T23:31:06Z</time>
      </trkpt>
      <trkpt lat="46.59283" lon="-1.37653">
        <ele>48</ele>
        <time>2023-10-31T23:31:56Z</time>
      </trkpt>
      <trkpt lat="46.59252" lon="-1.37624">
        <ele>46</ele>
        <time>2023-10-31T23:32:45Z</time>
      </trkpt>
      <trkpt lat="46.59234" lon="-1.37611">
        <ele>45</ele>
        <time>2023-10-31T23:33:12Z</time>
      </trkpt>
      <trkpt lat="46.59215" lon="-1.37602">
        <ele>45</ele>
        <time>2023-10-31T23:33:38Z</time>
      </trkpt>
      <trkpt lat="46.59197" lon="-1.37601">
        <ele>45</ele>
        <time>2023-10-31T23:34:02Z</time>
      </trkpt>
      <trkpt lat="46.5914" lon="-1.37607">
        <ele>46</ele>
        <time>2023-10-31T23:35:19Z</time>
      </trkpt>
      <trkpt lat="46.59122" lon="-1.37607">
        <ele>47</ele>
        <time>2023-10-31T23:35:43Z</time>
      </trkpt>
      <trkpt lat="46.59103" lon="-1.37601">
        <ele>47</ele>
        <time>2023-10-31T23:36:09Z</time>
      </trkpt>
      <trkpt lat="46.59085" lon="-1.37603">
        <ele>47</ele>
        <time>2023-10-31T23:36:33Z</time>
      </trkpt>
      <trkpt lat="46.59051" lon="-1.37667">
        <ele>52</ele>
        <time>2023-10-31T23:37:47Z</time>
      </trkpt>
      <trkpt lat="46.59037" lon="-1.37685">
        <ele>52</ele>
        <time>2023-10-31T23:38:12Z</time>
      </trkpt>
      <trkpt lat="46.5902" lon="-1.37674">
        <ele>52</ele>
        <time>2023-10-31T23:38:37Z</time>
      </trkpt>
      <trkpt lat="46.58984" lon="-1.37613">
        <ele>50</ele>
        <time>2023-10-31T23:39:50Z</time>
      </trkpt>
      <trkpt lat="46.58955" lon="-1.37581">
        <ele>48</ele>
        <time>2023-10-31T23:40:39Z</time>
      </trkpt>
      <trkpt lat="46.58871" lon="-1.37518">
        <ele>40</ele>
        <time>2023-10-31T23:42:45Z</time>
      </trkpt>
      <trkpt lat="46.58854" lon="-1.37508">
        <ele>38</ele>
        <time>2023-10-31T23:43:10Z</time>
      </trkpt>
      <trkpt lat="46.58819" lon="-1.37496">
        <ele>38</ele>
        <time>2023-10-31T23:43:58Z</time>
      </trkpt>
      <trkpt lat="46.588" lon="-1.37495">
        <ele>40</ele>
        <time>2023-10-31T23:44:23Z</time>
      </trkpt>
      <trkpt lat="46.58763" lon="-1.37509">
        <ele>43</ele>
        <time>2023-10-31T23:45:14Z</time>
      </trkpt>
      <trkpt lat="46.58745" lon="-1.37513">
        <ele>45</ele>
        <time>2023-10-31T23:45:38Z</time>
      </trkpt>
      <trkpt lat="46.58727" lon="-1.37511">
        <ele>46</ele>
        <time>2023-10-31T23:46:02Z</time>
      </trkpt>
      <trkpt lat="46.58709" lon="-1.37504">
        <ele>48</ele>
        <time>2023-10-31T23:46:27Z</time>
      </trkpt>
      <trkpt lat="46.58673" lon="-1.37485">
        <ele>53</ele>
        <time>2023-10-31T23:47:18Z</time>
      </trkpt>
      <trkpt lat="46.58664" lon="-1.37433">
        <ele>55</ele>
        <time>2023-10-31T23:48:07Z</time>
      </trkpt>
      <trkpt lat="46.58662" lon="-1.37407">
        <ele>55</ele>
        <time>2023-10-31T23:48:31Z</time>
      </trkpt>
      <trkpt lat="46.58636" lon="-1.37275">
        <ele>55</ele>
        <time>2023-10-31T23:50:37Z</time>
      </trkpt>
      <trkpt lat="46.58612" lon="-1.37202">
        <ele>55</ele>
        <time>2023-10-31T23:51:52Z</time>
      </trkpt>
      <trkpt lat="46.58613" lon="-1.37095">
        <ele>53</ele>
        <time>2023-10-31T23:53:30Z</time>
      </trkpt>
      <trkpt lat="46.58603" lon="-1.37072">
        <ele>53</ele>
        <time>2023-10-31T23:53:55Z</time>
      </trkpt>
      <trkpt lat="46.58537" lon="-1.36975">
        <ele>47</ele>
        <time>2023-10-31T23:56:00Z</time>
      </trkpt>
      <trkpt lat="46.58538" lon="-1.36947">
        <ele>46</ele>
        <time>2023-10-31T23:56:26Z</time>
      </trkpt>
      <trkpt lat="46.58535" lon="-1.36921">
        <ele>46</ele>
        <time>2023-10-31T23:56:50Z</time>
      </trkpt>
      <trkpt lat="46.58538" lon="-1.36895">
        <ele>45</ele>
        <time>2023-10-31T23:57:14Z</time>
      </trkpt>
      <trkpt lat="46.5855" lon="-1.36843">
        <ele>44</ele>
        <time>2023-10-31T23:58:04Z</time>
      </trkpt>
      <trkpt lat="46.58559" lon="-1.36818">
        <ele>43</ele>
        <time>2023-10-31T23:58:30Z</time>
      </trkpt>
      <trkpt lat="46.58571" lon="-1.36797">
        <ele>42</ele>
        <time>2023-10-31T23:58:55Z</time>
      </trkpt>
      <trkpt lat="46.58588" lon="-1.3675">
        <ele>40</ele>
        <time>2023-10-31T23:59:44Z</time>
      </trkpt>
      <trkpt lat="46.58592" lon="-1.36696">
        <ele>38</ele>
        <time>2023-11-01T00:00:34Z</time>
      </trkpt>
      <trkpt lat="46.58592" lon="-1.36641">
        <ele>37</ele>
        <time>2023-11-01T00:01:24Z</time>
      </trkpt>
      <trkpt lat="46.586" lon="-1.36586">
        <ele>37</ele>
        <time>2023-11-01T00:02:16Z</time>
      </trkpt>
      <trkpt lat="46.58617" lon="-1.36539">
        <ele>36</ele>
        <time>2023-11-01T00:03:04Z</time>
      </trkpt>
      <trkpt lat="46.58646" lon="-1.3647">
        <ele>34</ele>
        <time>2023-11-01T00:04:19Z</time>
      </trkpt>
      <trkpt lat="46.58632" lon="-1.36452">
        <ele>34</ele>
        <time>2023-11-01T00:04:44Z</time>
      </trkpt>
      <trkpt lat="46.58613" lon="-1.36453">
        <ele>34</ele>
        <time>2023-11-01T00:05:09Z</time>
      </trkpt>
      <trkpt lat="46.58576" lon="-1.3646">
        <ele>35</ele>
        <time>2023-11-01T00:05:59Z</time>
      </trkpt>
      <trkpt lat="46.58539" lon="-1.36471">
        <ele>36</ele>
        <time>2023-11-01T00:06:49Z</time>
      </trkpt>
      <trkpt lat="46.58521" lon="-1.3648">
        <ele>37</ele>
        <time>2023-11-01T00:07:15Z</time>
      </trkpt>
      <trkpt lat="46.58503" lon="-1.36484">
        <ele>37</ele>
        <time>2023-11-01T00:07:39Z</time>
      </trkpt>
      <trkpt lat="46.58485" lon="-1.36482">
        <ele>38</ele>
        <time>2023-11-01T00:08:03Z</time>
      </trkpt>
      <trkpt lat="46.58428" lon="-1.36491">
        <ele>40</ele>
        <time>2023-11-01T00:09:19Z</time>
      </trkpt>
      <trkpt lat="46.58431" lon="-1.36519">
        <ele>41</ele>
        <time>2023-11-01T00:09:45Z</time>
      </trkpt>
      <trkpt lat="46.58418" lon="-1.36469">
        <ele>39</ele>
        <time>2023-11-01T00:10:34Z</time>
      </trkpt>
      <trkpt lat="46.58422" lon="-1.36495">
        <ele>41</ele>
        <time>2023-11-01T00:10:59Z</time>
      </trkpt>
      <trkpt lat="46.58417" lon="-1.36521">
        <ele>42</ele>
        <time>2023-11-01T00:11:24Z</time>
      </trkpt>
      <trkpt lat="46.58404" lon="-1.3654">
        <ele>42</ele>
        <time>2023-11-01T00:11:48Z</time>
      </trkpt>
      <trkpt lat="46.58396" lon="-1.36565">
        <ele>43</ele>
        <time>2023-11-01T00:12:14Z</time>
      </trkpt>
      <trkpt lat="46.58393" lon="-1.36591">
        <ele>44</ele>
        <time>2023-11-01T00:12:38Z</time>
      </trkpt>
      <trkpt lat="46.58373" lon="-1.36636">
        <ele>44</ele>
        <time>2023-11-01T00:13:27Z</time>
      </trkpt>
      <trkpt lat="46.58355" lon="-1.36642">
        <ele>44</ele>
        <time>2023-11-01T00:13:51Z</time>
      </trkpt>
      <trkpt lat="46.58304" lon="-1.36672">
        <ele>43</ele>
        <time>2023-11-01T00:15:05Z</time>
      </trkpt>
      <trkpt lat="46.58286" lon="-1.36673">
        <ele>42</ele>
        <time>2023-11-01T00:15:29Z</time>
      </trkpt>
      <trkpt lat="46.58248" lon="-1.36683">
        <ele>41</ele>
        <time>2023-11-01T00:16:20Z</time>
      </trkpt>
      <trkpt lat="46.58229" lon="-1.36683">
        <ele>40</ele>
        <time>2023-11-01T00:16:46Z</time>
      </trkpt>
      <trkpt lat="46.58195" lon="-1.36701">
        <ele>39</ele>
        <time>2023-11-01T00:17:34Z</time>
      </trkpt>
      <trkpt lat="46.58181" lon="-1.3672">
        <ele>39</ele>
        <time>2023-11-01T00:18:00Z</time>
      </trkpt>
      <trkpt lat="46.58174" lon="-1.36744">
        <ele>40</ele>
        <time>2023-11-01T00:18:24Z</time>
      </trkpt>
      <trkpt lat="46.58171" lon="-1.36771">
        <ele>41</ele>
        <time>2023-11-01T00:18:49Z</time>
      </trkpt>
      <trkpt lat="46.58181" lon="-1.36822">
        <ele>42</ele>
        <time>2023-11-01T00:19:37Z</time>
      </trkpt>
      <trkpt lat="46.58177" lon="-1.36849">
        <ele>43</ele>
        <time>2023-11-01T00:20:03Z</time>
      </trkpt>
      <trkpt lat="46.58169" lon="-1.36873">
        <ele>44</ele>
        <time>2023-11-01T00:20:27Z</time>
      </trkpt>
      <trkpt lat="46.58175" lon="-1.36884">
        <ele>45</ele>
        <time>2023-11-01T00:20:40Z</time>
      </trkpt>
      <trkpt lat="46.58126" lon="-1.36918">
        <ele>48</ele>
        <time>2023-11-01T00:21:52Z</time>
      </trkpt>
      <trkpt lat="46.58112" lon="-1.36935">
        <ele>48</ele>
        <time>2023-11-01T00:22:17Z</time>
      </trkpt>
      <trkpt lat="46.581" lon="-1.36957">
        <ele>49</ele>
        <time>2023-11-01T00:22:43Z</time>
      </trkpt>
      <trkpt lat="46.58086" lon="-1.37006">
        <ele>51</ele>
        <time>2023-11-01T00:23:31Z</time>
      </trkpt>
      <trkpt lat="46.58075" lon="-1.37028">
        <ele>51</ele>
        <time>2023-11-01T00:23:56Z</time>
      </trkpt>
      <trkpt lat="46.58062" lon="-1.37046">
        <ele>52</ele>
        <time>2023-11-01T00:24:20Z</time>
      </trkpt>
      <trkpt lat="46.58045" lon="-1.37058">
        <ele>52</ele>
        <time>2023-11-01T00:24:45Z</time>
      </trkpt>
      <trkpt lat="46.58035" lon="-1.37035">
        <ele>52</ele>
        <time>2023-11-01T00:25:10Z</time>
      </trkpt>
      <trkpt lat="46.57992" lon="-1.36983">
        <ele>53</ele>
        <time>2023-11-01T00:26:25Z</time>
      </trkpt>
      <trkpt lat="46.57974" lon="-1.36991">
        <ele>54</ele>
        <time>2023-11-01T00:26:50Z</time>
      </trkpt>
      <trkpt lat="46.5791" lon="-1.37045">
        <ele>57</ele>
        <time>2023-11-01T00:28:29Z</time>
      </trkpt>
      <trkpt lat="46.57859" lon="-1.37077">
        <ele>57</ele>
        <time>2023-11-01T00:29:43Z</time>
      </trkpt>
      <trkpt lat="46.57826" lon="-1.37103">
        <ele>59</ele>
        <time>2023-11-01T00:30:33Z</time>
      </trkpt>
      <trkpt lat="46.57756" lon="-1.37193">
        <ele>65</ele>
        <time>2023-11-01T00:32:38Z</time>
      </trkpt>
      <trkpt lat="46.57736" lon="-1.37239">
        <ele>67</ele>
        <time>2023-11-01T00:33:28Z</time>
      </trkpt>
      <trkpt lat="46.5771" lon="-1.37277">
        <ele>68</ele>
        <time>2023-11-01T00:34:17Z</time>
      </trkpt>
      <trkpt lat="46.57668" lon="-1.37329">
        <ele>68</ele>
        <time>2023-11-01T00:35:30Z</time>
      </trkpt>
      <trkpt lat="46.57647" lon="-1.37376">
        <ele>67</ele>
        <time>2023-11-01T00:36:22Z</time>
      </trkpt>
      <trkpt lat="46.57634" lon="-1.37394">
        <ele>66</ele>
        <time>2023-11-01T00:36:46Z</time>
      </trkpt>
      <trkpt lat="46.57588" lon="-1.37439">
        <ele>66</ele>
        <time>2023-11-01T00:38:00Z</time>
      </trkpt>
      <trkpt lat="46.57574" lon="-1.37457">
        <ele>65</ele>
        <time>2023-11-01T00:38:25Z</time>
      </trkpt>
      <trkpt lat="46.57552" lon="-1.37501">
        <ele>65</ele>
        <time>2023-11-01T00:39:14Z</time>
      </trkpt>
      <trkpt lat="46.57545" lon="-1.37526">
        <ele>65</ele>
        <time>2023-11-01T00:39:39Z</time>
      </trkpt>
      <trkpt lat="46.57534" lon="-1.37549">
        <ele>64</ele>
        <time>2023-11-01T00:40:05Z</time>
      </trkpt>
      <trkpt lat="46.57481" lon="-1.37576">
        <ele>61</ele>
        <time>2023-11-01T00:41:20Z</time>
      </trkpt>
      <trkpt lat="46.57379" lon="-1.37647">
        <ele>61</ele>
        <time>2023-11-01T00:43:51Z</time>
      </trkpt>
      <trkpt lat="46.57317" lon="-1.37705">
        <ele>64</ele>
        <time>2023-11-01T00:45:29Z</time>
      </trkpt>
      <trkpt lat="46.57284" lon="-1.37728">
        <ele>66</ele>
        <time>2023-11-01T00:46:18Z</time>
      </trkpt>
      <trkpt lat="46.57269" lon="-1.37744">
        <ele>68</ele>
        <time>2023-11-01T00:46:43Z</time>
      </trkpt>
      <trkpt lat="46.5725" lon="-1.37743">
        <ele>69</ele>
        <time>2023-11-01T00:47:08Z</time>
      </trkpt>
      <trkpt lat="46.57213" lon="-1.37735">
        <ele>68</ele>
        <time>2023-11-01T00:47:58Z</time>
      </trkpt>
      <trkpt lat="46.57195" lon="-1.37728">
        <ele>68</ele>
        <time>2023-11-01T00:48:23Z</time>
      </trkpt>
      <trkpt lat="46.57158" lon="-1.37731">
        <ele>68</ele>
        <time>2023-11-01T00:49:12Z</time>
      </trkpt>
      <trkpt lat="46.57128" lon="-1.37763">
        <ele>69</ele>
        <time>2023-11-01T00:50:02Z</time>
      </trkpt>
      <trkpt lat="46.57111" lon="-1.37773">
        <ele>69</ele>
        <time>2023-11-01T00:50:27Z</time>
      </trkpt>
      <trkpt lat="46.57093" lon="-1.37772">
        <ele>69</ele>
        <time>2023-11-01T00:50:51Z</time>
      </trkpt>
      <trkpt lat="46.57022" lon="-1.37736">
        <ele>73</ele>
        <time>2023-11-01T00:52:31Z</time>
      </trkpt>
      <trkpt lat="46.57005" lon="-1.37725">
        <ele>74</ele>
        <time>2023-11-01T00:52:56Z</time>
      </trkpt>
      <trkpt lat="46.56974" lon="-1.37694">
        <ele>75</ele>
        <time>2023-11-01T00:53:46Z</time>
      </trkpt>
      <trkpt lat="46.56941" lon="-1.37667">
        <ele>75</ele>
        <time>2023-11-01T00:54:36Z</time>
      </trkpt>
      <trkpt lat="46.56926" lon="-1.37682">
        <ele>75</ele>
        <time>2023-11-01T00:55:01Z</time>
      </trkpt>
      <trkpt lat="46.56908" lon="-1.37729">
        <ele>76</ele>
        <time>2023-11-01T00:55:50Z</time>
      </trkpt>
      <trkpt lat="46.56881" lon="-1.37765">
        <ele>75</ele>
        <time>2023-11-01T00:56:39Z</time>
      </trkpt>
      <trkpt lat="46.56862" lon="-1.37764">
        <ele>75</ele>
        <time>2023-11-01T00:57:04Z</time>
      </trkpt>
      <trkpt lat="46.56847" lon="-1.37716">
        <ele>74</ele>
        <time>2023-11-01T00:57:53Z</time>
      </trkpt>
      <trkpt lat="46.56836" lon="-1.37693">
        <ele>74</ele>
        <time>2023-11-01T00:58:18Z</time>
      </trkpt>
      <trkpt lat="46.56799" lon="-1.37631">
        <ele>72</ele>
        <time>2023-11-01T00:59:34Z</time>
      </trkpt>
      <trkpt lat="46.56772" lon="-1.37594">
        <ele>72</ele>
        <time>2023-11-01T01:00:23Z</time>
      </trkpt>
      <trkpt lat="46.5676" lon="-1.37573">
        <ele>72</ele>
        <time>2023-11-01T01:00:48Z</time>
      </trkpt>
      <trkpt lat="46.5662" lon="-1.37396">
        <ele>71</ele>
        <time>2023-11-01T01:04:56Z</time>
      </trkpt>
      <trkpt lat="46.56462" lon="-1.37205">
        <ele>69</ele>
        <time>2023-11-01T01:09:30Z</time>
      </trkpt>
      <trkpt lat="46.56417" lon="-1.3716">
        <ele>69</ele>
        <time>2023-11-01T01:10:43Z</time>
      </trkpt>
      <trkpt lat="46.564" lon="-1.37151">
        <ele>69</ele>
        <time>2023-11-01T01:11:07Z</time>
      </trkpt>
      <trkpt lat="46.56394" lon="-1.37126">
        <ele>69</ele>
        <time>2023-11-01T01:11:31Z</time>
      </trkpt>
      <trkpt lat="46.56427" lon="-1.3706">
        <ele>69</ele>
        <time>2023-11-01T01:12:46Z</time>
      </trkpt>
      <trkpt lat="46.56465" lon="-1.36966">
        <ele>71</ele>
        <time>2023-11-01T01:14:26Z</time>
      </trkpt>
      <trkpt lat="46.56472" lon="-1.36941">
        <ele>72</ele>
        <time>2023-11-01T01:14:51Z</time>
      </trkpt>
      <trkpt lat="46.56483" lon="-1.3692">
        <ele>73</ele>
        <time>2023-11-01T01:15:15Z</time>
      </trkpt>
      <trkpt lat="46.56483" lon="-1.36894">
        <ele>73</ele>
        <time>2023-11-01T01:15:39Z</time>
      </trkpt>
      <trkpt lat="46.5651" lon="-1.36823">
        <ele>73</ele>
        <time>2023-11-01T01:16:54Z</time>
      </trkpt>
      <trkpt lat="46.56534" lon="-1.36782">
        <ele>71</ele>
        <time>2023-11-01T01:17:43Z</time>
      </trkpt>
      <trkpt lat="46.56584" lon="-1.36743">
        <ele>71</ele>
        <time>2023-11-01T01:18:59Z</time>
      </trkpt>
      <trkpt lat="46.56599" lon="-1.36726">
        <ele>70</ele>
        <time>2023-11-01T01:19:24Z</time>
      </trkpt>
      <trkpt lat="46.56604" lon="-1.36701">
        <ele>69</ele>
        <time>2023-11-01T01:19:48Z</time>
      </trkpt>
      <trkpt lat="46.56595" lon="-1.3662">
        <ele>69</ele>
        <time>2023-11-01T01:21:03Z</time>
      </trkpt>
      <trkpt lat="46.56596" lon="-1.3654">
        <ele>67</ele>
        <time>2023-11-01T01:22:17Z</time>
      </trkpt>
      <trkpt lat="46.56602" lon="-1.36485">
        <ele>67</ele>
        <time>2023-11-01T01:23:08Z</time>
      </trkpt>
      <trkpt lat="46.56611" lon="-1.36431">
        <ele>67</ele>
        <time>2023-11-01T01:23:59Z</time>
      </trkpt>
      <trkpt lat="46.56616" lon="-1.36349">
        <ele>67</ele>
        <time>2023-11-01T01:25:14Z</time>
      </trkpt>
      <trkpt lat="46.56625" lon="-1.3627">
        <ele>67</ele>
        <time>2023-11-01T01:26:28Z</time>
      </trkpt>
      <trkpt lat="46.56634" lon="-1.36218">
        <ele>66</ele>
        <time>2023-11-01T01:27:17Z</time>
      </trkpt>
      <trkpt lat="46.56639" lon="-1.36164">
        <ele>65</ele>
        <time>2023-11-01T01:28:07Z</time>
      </trkpt>
      <trkpt lat="46.56638" lon="-1.36136">
        <ele>64</ele>
        <time>2023-11-01T01:28:33Z</time>
      </trkpt>
      <trkpt lat="46.56633" lon="-1.36111">
        <ele>63</ele>
        <time>2023-11-01T01:28:56Z</time>
      </trkpt>
      <trkpt lat="46.5661" lon="-1.36035">
        <ele>60</ele>
        <time>2023-11-01T01:30:13Z</time>
      </trkpt>
      <trkpt lat="46.566" lon="-1.35953">
        <ele>58</ele>
        <time>2023-11-01T01:31:29Z</time>
      </trkpt>
      <trkpt lat="46.56603" lon="-1.35926">
        <ele>58</ele>
        <time>2023-11-01T01:31:54Z</time>
      </trkpt>
      <trkpt lat="46.56623" lon="-1.35849">
        <ele>54</ele>
        <time>2023-11-01T01:33:10Z</time>
      </trkpt>
      <trkpt lat="46.56625" lon="-1.35823">
        <ele>54</ele>
        <time>2023-11-01T01:33:34Z</time>
      </trkpt>
      <trkpt lat="46.56611" lon="-1.35805">
        <ele>53</ele>
        <time>2023-11-01T01:33:59Z</time>
      </trkpt>
      <trkpt lat="46.56595" lon="-1.35793">
        <ele>53</ele>
        <time>2023-11-01T01:34:23Z</time>
      </trkpt>
      <trkpt lat="46.56561" lon="-1.35774">
        <ele>50</ele>
        <time>2023-11-01T01:35:11Z</time>
      </trkpt>
      <trkpt lat="46.56545" lon="-1.3576">
        <ele>49</ele>
        <time>2023-11-01T01:35:36Z</time>
      </trkpt>
      <trkpt lat="46.56543" lon="-1.35734">
        <ele>48</ele>
        <time>2023-11-01T01:36:00Z</time>
      </trkpt>
      <trkpt lat="46.56556" lon="-1.35715">
        <ele>48</ele>
        <time>2023-11-01T01:36:25Z</time>
      </trkpt>
      <trkpt lat="46.56566" lon="-1.35692">
        <ele>48</ele>
        <time>2023-11-01T01:36:50Z</time>
      </trkpt>
      <trkpt lat="46.56554" lon="-1.35712">
        <ele>48</ele>
        <time>2023-11-01T01:37:14Z</time>
      </trkpt>
      <trkpt lat="46.56546" lon="-1.35735">
        <ele>48</ele>
        <time>2023-11-01T01:37:38Z</time>
      </trkpt>
      <trkpt lat="46.56528" lon="-1.35739">
        <ele>47</ele>
        <time>2023-11-01T01:38:02Z</time>
      </trkpt>
      <trkpt lat="46.56515" lon="-1.35721">
        <ele>47</ele>
        <time>2023-11-01T01:38:26Z</time>
      </trkpt>
      <trkpt lat="46.56499" lon="-1.35706">
        <ele>46</ele>
        <time>2023-11-01T01:38:51Z</time>
      </trkpt>
      <trkpt lat="46.56465" lon="-1.35682">
        <ele>48</ele>
        <time>2023-11-01T01:39:42Z</time>
      </trkpt>
      <trkpt lat="46.56418" lon="-1.35637">
        <ele>50</ele>
        <time>2023-11-01T01:40:57Z</time>
      </trkpt>
      <trkpt lat="46.56384" lon="-1.35659">
        <ele>52</ele>
        <time>2023-11-01T01:41:47Z</time>
      </trkpt>
      <trkpt lat="46.56285" lon="-1.35731">
        <ele>60</ele>
        <time>2023-11-01T01:44:14Z</time>
      </trkpt>
      <trkpt lat="46.56268" lon="-1.35741">
        <ele>61</ele>
        <time>2023-11-01T01:44:39Z</time>
      </trkpt>
      <trkpt lat="46.56195" lon="-1.3577">
        <ele>62</ele>
        <time>2023-11-01T01:46:20Z</time>
      </trkpt>
      <trkpt lat="46.56177" lon="-1.35768">
        <ele>62</ele>
        <time>2023-11-01T01:46:44Z</time>
      </trkpt>
      <trkpt lat="46.56152" lon="-1.35729">
        <ele>61</ele>
        <time>2023-11-01T01:47:33Z</time>
      </trkpt>
      <trkpt lat="46.56107" lon="-1.3568">
        <ele>60</ele>
        <time>2023-11-01T01:48:48Z</time>
      </trkpt>
      <trkpt lat="46.56091" lon="-1.35666">
        <ele>60</ele>
        <time>2023-11-01T01:49:13Z</time>
      </trkpt>
      <trkpt lat="46.56071" lon="-1.35622">
        <ele>58</ele>
        <time>2023-11-01T01:50:01Z</time>
      </trkpt>
      <trkpt lat="46.56047" lon="-1.35548">
        <ele>55</ele>
        <time>2023-11-01T01:51:16Z</time>
      </trkpt>
      <trkpt lat="46.56035" lon="-1.35526">
        <ele>54</ele>
        <time>2023-11-01T01:51:42Z</time>
      </trkpt>
      <trkpt lat="46.56031" lon="-1.355">
        <ele>52</ele>
        <time>2023-11-01T01:52:06Z</time>
      </trkpt>
      <trkpt lat="46.56027" lon="-1.35421">
        <ele>51</ele>
        <time>2023-11-01T01:53:19Z</time>
      </trkpt>
      <trkpt lat="46.56021" lon="-1.35396">
        <ele>50</ele>
        <time>2023-11-01T01:53:43Z</time>
      </trkpt>
      <trkpt lat="46.5599" lon="-1.35328">
        <ele>48</ele>
        <time>2023-11-01T01:54:58Z</time>
      </trkpt>
      <trkpt lat="46.55978" lon="-1.35307">
        <ele>48</ele>
        <time>2023-11-01T01:55:23Z</time>
      </trkpt>
      <trkpt lat="46.55958" lon="-1.3526">
        <ele>46</ele>
        <time>2023-11-01T01:56:14Z</time>
      </trkpt>
      <trkpt lat="46.55923" lon="-1.35197">
        <ele>45</ele>
        <time>2023-11-01T01:57:28Z</time>
      </trkpt>
      <trkpt lat="46.55895" lon="-1.3516">
        <ele>44</ele>
        <time>2023-11-01T01:58:19Z</time>
      </trkpt>
      <trkpt lat="46.55815" lon="-1.35086">
        <ele>41</ele>
        <time>2023-11-01T02:00:25Z</time>
      </trkpt>
      <trkpt lat="46.55799" lon="-1.35073">
        <ele>39</ele>
        <time>2023-11-01T02:00:50Z</time>
      </trkpt>
      <trkpt lat="46.55782" lon="-1.35063">
        <ele>38</ele>
        <time>2023-11-01T02:01:14Z</time>
      </trkpt>
      <trkpt lat="46.55786" lon="-1.35037">
        <ele>37</ele>
        <time>2023-11-01T02:01:39Z</time>
      </trkpt>
      <trkpt lat="46.55858" lon="-1.34949">
        <ele>31</ele>
        <time>2023-11-01T02:03:44Z</time>
      </trkpt>
      <trkpt lat="46.5587" lon="-1.34927">
        <ele>29</ele>
        <time>2023-11-01T02:04:10Z</time>
      </trkpt>
      <trkpt lat="46.55879" lon="-1.34903">
        <ele>28</ele>
        <time>2023-11-01T02:04:35Z</time>
      </trkpt>
      <trkpt lat="46.55884" lon="-1.34849">
        <ele>26</ele>
        <time>2023-11-01T02:05:25Z</time>
      </trkpt>
      <trkpt lat="46.55872" lon="-1.34797">
        <ele>27</ele>
        <time>2023-11-01T02:06:15Z</time>
      </trkpt>
      <trkpt lat="46.55879" lon="-1.34744">
        <ele>28</ele>
        <time>2023-11-01T02:07:05Z</time>
      </trkpt>
      <trkpt lat="46.55894" lon="-1.34729">
        <ele>30</ele>
        <time>2023-11-01T02:07:29Z</time>
      </trkpt>
      <trkpt lat="46.55929" lon="-1.34745">
        <ele>30</ele>
        <time>2023-11-01T02:08:18Z</time>
      </trkpt>
      <trkpt lat="46.55945" lon="-1.34757">
        <ele>29</ele>
        <time>2023-11-01T02:08:42Z</time>
      </trkpt>
      <trkpt lat="46.5595" lon="-1.34783">
        <ele>28</ele>
        <time>2023-11-01T02:09:07Z</time>
      </trkpt>
      <trkpt lat="46.55972" lon="-1.34825">
        <ele>26</ele>
        <time>2023-11-01T02:09:55Z</time>
      </trkpt>
      <trkpt lat="46.5603" lon="-1.3489">
        <ele>27</ele>
        <time>2023-11-01T02:11:33Z</time>
      </trkpt>
      <trkpt lat="46.56078" lon="-1.34933">
        <ele>27</ele>
        <time>2023-11-01T02:12:48Z</time>
      </trkpt>
      <trkpt lat="46.56146" lon="-1.34976">
        <ele>27</ele>
        <time>2023-11-01T02:14:27Z</time>
      </trkpt>
      <trkpt lat="46.56182" lon="-1.34987">
        <ele>28</ele>
        <time>2023-11-01T02:15:16Z</time>
      </trkpt>
      <trkpt lat="46.56201" lon="-1.34987">
        <ele>29</ele>
        <time>2023-11-01T02:15:42Z</time>
      </trkpt>
      <trkpt lat="46.56235" lon="-1.34968">
        <ele>32</ele>
        <time>2023-11-01T02:16:30Z</time>
      </trkpt>
      <trkpt lat="46.56245" lon="-1.34946">
        <ele>32</ele>
        <time>2023-11-01T02:16:54Z</time>
      </trkpt>
      <trkpt lat="46.5626" lon="-1.34898">
        <ele>34</ele>
        <time>2023-11-01T02:17:43Z</time>
      </trkpt>
      <trkpt lat="46.56264" lon="-1.34871">
        <ele>35</ele>
        <time>2023-11-01T02:18:08Z</time>
      </trkpt>
      <trkpt lat="46.56271" lon="-1.34847">
        <ele>37</ele>
        <time>2023-11-01T02:18:32Z</time>
      </trkpt>
      <trkpt lat="46.56298" lon="-1.34809">
        <ele>38</ele>
        <time>2023-11-01T02:19:22Z</time>
      </trkpt>
      <trkpt lat="46.56374" lon="-1.34729">
        <ele>40</ele>
        <time>2023-11-01T02:21:27Z</time>
      </trkpt>
      <trkpt lat="46.56391" lon="-1.34721">
        <ele>40</ele>
        <time>2023-11-01T02:21:51Z</time>
      </trkpt>
      <trkpt lat="46.56407" lon="-1.34734">
        <ele>40</ele>
        <time>2023-11-01T02:22:16Z</time>
      </trkpt>
      <trkpt lat="46.56444" lon="-1.34795">
        <ele>41</ele>
        <time>2023-11-01T02:23:30Z</time>
      </trkpt>
      <trkpt lat="46.56471" lon="-1.3483">
        <ele>41</ele>
        <time>2023-11-01T02:24:19Z</time>
      </trkpt>
      <trkpt lat="46.56527" lon="-1.34848">
        <ele>41</ele>
        <time>2023-11-01T02:25:35Z</time>
      </trkpt>
      <trkpt lat="46.56543" lon="-1.3486">
        <ele>41</ele>
        <time>2023-11-01T02:25:59Z</time>
      </trkpt>
      <trkpt lat="46.56586" lon="-1.34912">
        <ele>41</ele>
        <time>2023-11-01T02:27:14Z</time>
      </trkpt>
      <trkpt lat="46.56599" lon="-1.34931">
        <ele>40</ele>
        <time>2023-11-01T02:27:38Z</time>
      </trkpt>
      <trkpt lat="46.56614" lon="-1.34948">
        <ele>39</ele>
        <time>2023-11-01T02:28:04Z</time>
      </trkpt>
      <trkpt lat="46.5663" lon="-1.34961">
        <ele>38</ele>
        <time>2023-11-01T02:28:28Z</time>
      </trkpt>
      <trkpt lat="46.56647" lon="-1.34968">
        <ele>38</ele>
        <time>2023-11-01T02:28:52Z</time>
      </trkpt>
      <trkpt lat="46.56683" lon="-1.34958">
        <ele>39</ele>
        <time>2023-11-01T02:29:41Z</time>
      </trkpt>
      <trkpt lat="46.56701" lon="-1.3496">
        <ele>38</ele>
        <time>2023-11-01T02:30:05Z</time>
      </trkpt>
      <trkpt lat="46.56719" lon="-1.34968">
        <ele>37</ele>
        <time>2023-11-01T02:30:30Z</time>
      </trkpt>
      <trkpt lat="46.56729" lon="-1.34991">
        <ele>35</ele>
        <time>2023-11-01T02:30:55Z</time>
      </trkpt>
      <trkpt lat="46.56747" lon="-1.34998">
        <ele>33</ele>
        <time>2023-11-01T02:31:20Z</time>
      </trkpt>
      <trkpt lat="46.5676" lon="-1.35019">
        <ele>32</ele>
        <time>2023-11-01T02:31:46Z</time>
      </trkpt>
      <trkpt lat="46.5677" lon="-1.3504">
        <ele>31</ele>
        <time>2023-11-01T02:32:09Z</time>
      </trkpt>
      <trkpt lat="46.56776" lon="-1.35066">
        <ele>30</ele>
        <time>2023-11-01T02:32:34Z</time>
      </trkpt>
      <trkpt lat="46.56786" lon="-1.35089">
        <ele>30</ele>
        <time>2023-11-01T02:32:59Z</time>
      </trkpt>
      <trkpt lat="46.568" lon="-1.35106">
        <ele>31</ele>
        <time>2023-11-01T02:33:24Z</time>
      </trkpt>
      <trkpt lat="46.56819" lon="-1.35109">
        <ele>32</ele>
        <time>2023-11-01T02:33:49Z</time>
      </trkpt>
      <trkpt lat="46.56835" lon="-1.35124">
        <ele>33</ele>
        <time>2023-11-01T02:34:15Z</time>
      </trkpt>
      <trkpt lat="46.56852" lon="-1.35135">
        <ele>35</ele>
        <time>2023-11-01T02:34:39Z</time>
      </trkpt>
      <trkpt lat="46.56866" lon="-1.35118">
        <ele>36</ele>
        <time>2023-11-01T02:35:04Z</time>
      </trkpt>
      <trkpt lat="46.56883" lon="-1.35125">
        <ele>38</ele>
        <time>2023-11-01T02:35:27Z</time>
      </trkpt>
      <trkpt lat="46.56911" lon="-1.35194">
        <ele>41</ele>
        <time>2023-11-01T02:36:41Z</time>
      </trkpt>
      <trkpt lat="46.5691" lon="-1.35222">
        <ele>40</ele>
        <time>2023-11-01T02:37:06Z</time>
      </trkpt>
      <trkpt lat="46.56912" lon="-1.35249">
        <ele>40</ele>
        <time>2023-11-01T02:37:31Z</time>
      </trkpt>
      <trkpt lat="46.56934" lon="-1.35292">
        <ele>40</ele>
        <time>2023-11-01T02:38:21Z</time>
      </trkpt>
      <trkpt lat="46.56951" lon="-1.35338">
        <ele>40</ele>
        <time>2023-11-01T02:39:08Z</time>
      </trkpt>
      <trkpt lat="46.56969" lon="-1.35341">
        <ele>42</ele>
        <time>2023-11-01T02:39:33Z</time>
      </trkpt>
      <trkpt lat="46.57034" lon="-1.35289">
        <ele>44</ele>
        <time>2023-11-01T02:41:12Z</time>
      </trkpt>
      <trkpt lat="46.57068" lon="-1.35267">
        <ele>44</ele>
        <time>2023-11-01T02:42:01Z</time>
      </trkpt>
      <trkpt lat="46.57086" lon="-1.35259">
        <ele>44</ele>
        <time>2023-11-01T02:42:26Z</time>
      </trkpt>
      <trkpt lat="46.57104" lon="-1.35253">
        <ele>44</ele>
        <time>2023-11-01T02:42:51Z</time>
      </trkpt>
      <trkpt lat="46.57142" lon="-1.35247">
        <ele>45</ele>
        <time>2023-11-01T02:43:42Z</time>
      </trkpt>
      <trkpt lat="46.57159" lon="-1.35252">
        <ele>45</ele>
        <time>2023-11-01T02:44:05Z</time>
      </trkpt>
      <trkpt lat="46.57173" lon="-1.35329">
        <ele>46</ele>
        <time>2023-11-01T02:45:18Z</time>
      </trkpt>
      <trkpt lat="46.57181" lon="-1.35354">
        <ele>46</ele>
        <time>2023-11-01T02:45:44Z</time>
      </trkpt>
      <trkpt lat="46.57193" lon="-1.35375">
        <ele>46</ele>
        <time>2023-11-01T02:46:09Z</time>
      </trkpt>
      <trkpt lat="46.57198" lon="-1.35456">
        <ele>45</ele>
        <time>2023-11-01T02:47:23Z</time>
      </trkpt>
      <trkpt lat="46.57208" lon="-1.35483">
        <ele>43</ele>
        <time>2023-11-01T02:47:51Z</time>
      </trkpt>
      <trkpt lat="46.5721" lon="-1.3551">
        <ele>41</ele>
        <time>2023-11-01T02:48:16Z</time>
      </trkpt>
      <trkpt lat="46.57222" lon="-1.3553">
        <ele>38</ele>
        <time>2023-11-01T02:48:41Z</time>
      </trkpt>
      <trkpt lat="46.57241" lon="-1.35531">
        <ele>38</ele>
        <time>2023-11-01T02:49:06Z</time>
      </trkpt>
      <trkpt lat="46.5726" lon="-1.35537">
        <ele>36</ele>
        <time>2023-11-01T02:49:32Z</time>
      </trkpt>
      <trkpt lat="46.57279" lon="-1.35538">
        <ele>35</ele>
        <time>2023-11-01T02:49:57Z</time>
      </trkpt>
      <trkpt lat="46.57316" lon="-1.35531">
        <ele>34</ele>
        <time>2023-11-01T02:50:47Z</time>
      </trkpt>
      <trkpt lat="46.57334" lon="-1.3552">
        <ele>33</ele>
        <time>2023-11-01T02:51:13Z</time>
      </trkpt>
      <trkpt lat="46.57408" lon="-1.35439">
        <ele>36</ele>
        <time>2023-11-01T02:53:17Z</time>
      </trkpt>
      <trkpt lat="46.57457" lon="-1.35402">
        <ele>37</ele>
        <time>2023-11-01T02:54:30Z</time>
      </trkpt>
      <trkpt lat="46.57475" lon="-1.35398">
        <ele>36</ele>
        <time>2023-11-01T02:54:55Z</time>
      </trkpt>
      <trkpt lat="46.57494" lon="-1.35397">
        <ele>34</ele>
        <time>2023-11-01T02:55:20Z</time>
      </trkpt>
      <trkpt lat="46.57512" lon="-1.35388">
        <ele>35</ele>
        <time>2023-11-01T02:55:46Z</time>
      </trkpt>
      <trkpt lat="46.57567" lon="-1.35368">
        <ele>36</ele>
        <time>2023-11-01T02:57:01Z</time>
      </trkpt>
      <trkpt lat="46.57585" lon="-1.35368">
        <ele>36</ele>
        <time>2023-11-01T02:57:25Z</time>
      </trkpt>
      <trkpt lat="46.57602" lon="-1.35379">
        <ele>36</ele>
        <time>2023-11-01T02:57:50Z</time>
      </trkpt>
      <trkpt lat="46.57619" lon="-1.35386">
        <ele>36</ele>
        <time>2023-11-01T02:58:14Z</time>
      </trkpt>
      <trkpt lat="46.5765" lon="-1.35418">
        <ele>34</ele>
        <time>2023-11-01T02:59:04Z</time>
      </trkpt>
      <trkpt lat="46.57676" lon="-1.35459">
        <ele>34</ele>
        <time>2023-11-01T02:59:55Z</time>
      </trkpt>
      <trkpt lat="46.57694" lon="-1.35456">
        <ele>36</ele>
        <time>2023-11-01T03:00:20Z</time>
      </trkpt>
      <trkpt lat="46.5772" lon="-1.35418">
        <ele>42</ele>
        <time>2023-11-01T03:01:09Z</time>
      </trkpt>
      <trkpt lat="46.57738" lon="-1.35421">
        <ele>44</ele>
        <time>2023-11-01T03:01:33Z</time>
      </trkpt>
      <trkpt lat="46.57755" lon="-1.3541">
        <ele>46</ele>
        <time>2023-11-01T03:01:58Z</time>
      </trkpt>
      <trkpt lat="46.57766" lon="-1.35389">
        <ele>48</ele>
        <time>2023-11-01T03:02:22Z</time>
      </trkpt>
      <trkpt lat="46.57782" lon="-1.35377">
        <ele>49</ele>
        <time>2023-11-01T03:02:46Z</time>
      </trkpt>
      <trkpt lat="46.57817" lon="-1.35391">
        <ele>50</ele>
        <time>2023-11-01T03:03:35Z</time>
      </trkpt>
      <trkpt lat="46.57828" lon="-1.35413">
        <ele>50</ele>
        <time>2023-11-01T03:03:59Z</time>
      </trkpt>
      <trkpt lat="46.57817" lon="-1.35467">
        <ele>47</ele>
        <time>2023-11-01T03:04:51Z</time>
      </trkpt>
      <trkpt lat="46.57817" lon="-1.35494">
        <ele>46</ele>
        <time>2023-11-01T03:05:16Z</time>
      </trkpt>
      <trkpt lat="46.57821" lon="-1.3552">
        <ele>45</ele>
        <time>2023-11-01T03:05:40Z</time>
      </trkpt>
      <trkpt lat="46.57837" lon="-1.35569">
        <ele>42</ele>
        <time>2023-11-01T03:06:30Z</time>
      </trkpt>
      <trkpt lat="46.57847" lon="-1.35591">
        <ele>42</ele>
        <time>2023-11-01T03:06:54Z</time>
      </trkpt>
      <trkpt lat="46.57852" lon="-1.35616">
        <ele>41</ele>
        <time>2023-11-01T03:07:18Z</time>
      </trkpt>
      <trkpt lat="46.57867" lon="-1.35665">
        <ele>41</ele>
        <time>2023-11-01T03:08:07Z</time>
      </trkpt>
      <trkpt lat="46.57871" lon="-1.35692">
        <ele>41</ele>
        <time>2023-11-01T03:08:33Z</time>
      </trkpt>
      <trkpt lat="46.57858" lon="-1.35742">
        <ele>39</ele>
        <time>2023-11-01T03:09:22Z</time>
      </trkpt>
      <trkpt lat="46.57834" lon="-1.35816">
        <ele>36</ele>
        <time>2023-11-01T03:10:37Z</time>
      </trkpt>
      <trkpt lat="46.57845" lon="-1.35867">
        <ele>35</ele>
        <time>2023-11-01T03:11:26Z</time>
      </trkpt>
      <trkpt lat="46.57845" lon="-1.35894">
        <ele>34</ele>
        <time>2023-11-01T03:11:51Z</time>
      </trkpt>
      <trkpt lat="46.57854" lon="-1.35917">
        <ele>34</ele>
        <time>2023-11-01T03:12:15Z</time>
      </trkpt>
      <trkpt lat="46.57867" lon="-1.35936">
        <ele>34</ele>
        <time>2023-11-01T03:12:39Z</time>
      </trkpt>
      <trkpt lat="46.57878" lon="-1.35958">
        <ele>35</ele>
        <time>2023-11-01T03:13:04Z</time>
      </trkpt>
      <trkpt lat="46.57905" lon="-1.3603">
        <ele>37</ele>
        <time>2023-11-01T03:14:20Z</time>
      </trkpt>
      <trkpt lat="46.57939" lon="-1.36095">
        <ele>42</ele>
        <time>2023-11-01T03:15:35Z</time>
      </trkpt>
      <trkpt lat="46.57948" lon="-1.3612">
        <ele>42</ele>
        <time>2023-11-01T03:16:00Z</time>
      </trkpt>
      <trkpt lat="46.58017" lon="-1.3621">
        <ele>43</ele>
        <time>2023-11-01T03:18:04Z</time>
      </trkpt>
      <trkpt lat="46.58047" lon="-1.36243">
        <ele>42</ele>
        <time>2023-11-01T03:18:54Z</time>
      </trkpt>
      <trkpt lat="46.58064" lon="-1.36254">
        <ele>41</ele>
        <time>2023-11-01T03:19:19Z</time>
      </trkpt>
      <trkpt lat="46.58082" lon="-1.36262">
        <ele>40</ele>
        <time>2023-11-01T03:19:44Z</time>
      </trkpt>
      <trkpt lat="46.58138" lon="-1.36272">
        <ele>36</ele>
        <time>2023-11-01T03:21:00Z</time>
      </trkpt>
      <trkpt lat="46.58174" lon="-1.36264">
        <ele>35</ele>
        <time>2023-11-01T03:21:48Z</time>
      </trkpt>
      <trkpt lat="46.58186" lon="-1.3624">
        <ele>36</ele>
        <time>2023-11-01T03:22:15Z</time>
      </trkpt>
      <trkpt lat="46.58189" lon="-1.36186">
        <ele>40</ele>
        <time>2023-11-01T03:23:05Z</time>
      </trkpt>
      <trkpt lat="46.58197" lon="-1.36163">
        <ele>40</ele>
        <time>2023-11-01T03:23:29Z</time>
      </trkpt>
      <trkpt lat="46.58215" lon="-1.36157">
        <ele>37</ele>
        <time>2023-11-01T03:23:53Z</time>
      </trkpt>
      <trkpt lat="46.58218" lon="-1.36183">
        <ele>35</ele>
        <time>2023-11-01T03:24:18Z</time>
      </trkpt>
      <trkpt lat="46.58226" lon="-1.36208">
        <ele>33</ele>
        <time>2023-11-01T03:24:43Z</time>
      </trkpt>
      <trkpt lat="46.58228" lon="-1.36234">
        <ele>33</ele>
        <time>2023-11-01T03:25:07Z</time>
      </trkpt>
      <trkpt lat="46.58252" lon="-1.36307">
        <ele>31</ele>
        <time>2023-11-01T03:26:21Z</time>
      </trkpt>
      <trkpt lat="46.58258" lon="-1.36334">
        <ele>31</ele>
        <time>2023-11-01T03:26:47Z</time>
      </trkpt>
      <trkpt lat="46.58289" lon="-1.36403">
        <ele>33</ele>
        <time>2023-11-01T03:28:03Z</time>
      </trkpt>
      <trkpt lat="46.58316" lon="-1.36441">
        <ele>35</ele>
        <time>2023-11-01T03:28:53Z</time>
      </trkpt>
      <trkpt lat="46.58348" lon="-1.36469">
        <ele>37</ele>
        <time>2023-11-01T03:29:43Z</time>
      </trkpt>
      <trkpt lat="46.58375" lon="-1.36504">
        <ele>40</ele>
        <time>2023-11-01T03:30:31Z</time>
      </trkpt>
      <trkpt lat="46.58394" lon="-1.36508">
        <ele>41</ele>
        <time>2023-11-01T03:30:57Z</time>
      </trkpt>
      <trkpt lat="46.58411" lon="-1.36492">
        <ele>40</ele>
        <time>2023-11-01T03:31:24Z</time>
      </trkpt>
      <trkpt lat="46.58417" lon="-1.36466">
        <ele>39</ele>
        <time>2023-11-01T03:31:49Z</time>
      </trkpt>
    </trkseg>
  </trk>
</gpx>